Flight Track Log - Related Links

Times and Time Zones

All times are in EDT time to prevent confusion due to time zone crossing. See the JBU1022 flight status page for this flight to view local times or setup timezone preferences in your user account.

Time Position Orientation Groundspeed Altitude Reporting Facility
EDT Latitude Longitude Course Direction KTS MPH feet Rate Location/Type
Wed 04:41:18 PM 26.7367 -79.9439 53° Northeast 266 306 5,400  Level Miami Center
Wed 04:42:00 PM 26.9351 -79.6706 55° Northeast  Level FlightAware Approximate
Wed 04:42:20 PM 26.7981 -79.8853 40° Northeast 277 319 8,400  Level Miami Center
Wed 04:43:00 PM 27.0043 -79.5602 53° Northeast  Level FlightAware Approximate
Wed 04:44:00 PM 27.0735 -79.4497 56° Northeast  Level FlightAware Approximate
Wed 04:45:00 PM 27.1412 -79.3407 55° Northeast  Level FlightAware Approximate
Wed 04:46:00 PM 27.2176 -79.2402 53° Northeast  Level FlightAware Approximate
Wed 04:48:38 PM 27.1935 -79.2911 54° Northeast 422 486 20,300  Level FlightAware ADS-B
Wed 04:49:38 PM 27.2632 -79.1828 54° Northeast 430 495 21,900 1,438 Climbing FlightAware ADS-B
Wed 04:50:39 PM 27.3340 -79.0723 54° Northeast 432 497 23,200 1,171 Climbing FlightAware ADS-B
Wed 04:51:41 PM 27.4324 -78.9966 10° North 446 513 24,300 1,020 Climbing FlightAware ADS-B
Wed 04:52:19 PM 27.5088 -78.9846 North 455 524 24,900 1,154 Climbing FlightAware ADS-B
Wed 04:52:59 PM 27.5984 -78.9706 North 467 537 25,800 1,136 Climbing FlightAware ADS-B
Wed 04:56:22 PM 28.0367 -78.9192 North 478 550 29,500 1,204 Climbing FlightAware ADS-B
Wed 04:57:28 PM 28.1873 -78.8943 North 468 539 31,200 1,546 Climbing FlightAware ADS-B
Wed 04:57:59 PM 28.2538 -78.8838 North 462 532 32,000 1,341 Climbing FlightAware ADS-B
Wed 04:58:53 PM 28.3525 -78.8692 North 464 534 33,100 1,231 Climbing Miami Center
Wed 04:59:56 PM 28.4744 -78.8494 North 452 520 34,400 816 Climbing Miami Center
Wed 05:00:58 PM 28.5975 -78.8286 North 450 518 34,800 290 Climbing Miami Center
Wed 05:02:00 PM 28.7217 -78.8069 North 450 518 35,000 97 Climbing Miami Center
Wed 05:03:02 PM 28.8794 -78.7817 North 473 544 35,000  Level Miami Center
Wed 05:04:04 PM 29.0097 -78.7606 North 474 545 35,000  Level Miami Center
Wed 05:05:06 PM 29.1386 -78.7389 North 472 543 35,000  Level Miami Center
Wed 05:06:08 PM 29.2683 -78.7172 North 471 542 35,000 -48 Level Miami Center
Wed 05:07:10 PM 29.3956 -78.6953 North 469 540 34,900  Descending Miami Center
Wed 05:08:12 PM 29.5517 -78.6703 North 469 540 35,000 48 Climbing Miami Center
Wed 05:09:14 PM 29.6794 -78.6483 North 468 539 35,000  Level Miami Center
Wed 05:10:16 PM 29.8078 -78.6264 North 468 539 35,000  Level Miami Center
Wed 05:11:18 PM 29.9369 -78.6039 North 468 539 35,000  Level Miami Center
Wed 05:12:20 PM 30.0733 -78.5814 North 468 539 35,000  Level Miami Center
Wed 05:13:22 PM 30.2036 -78.5597 North 472 543 35,000  Level Miami Center
Wed 05:14:24 PM 30.3322 -78.5372 North 468 539 35,000  Level Miami Center
Wed 05:15:26 PM 30.4614 -78.5156 North 468 539 35,000  Level Miami Center
Wed 05:16:28 PM 30.6169 -78.4892 North 470 541 35,000  Level Miami Center
Wed 05:17:30 PM 30.7469 -78.4694 North 470 541 35,000 -46 Level Miami Center
Wed 05:18:39 PM 30.9050 -78.4453 North 465 535 34,900  Descending Jacksonville Center
Wed 05:19:39 PM 31.0211 -78.4228 North 462 532 35,000 50 Climbing Jacksonville Center
Wed 05:20:39 PM 31.1497 -78.4019 North 462 532 35,000  Level Jacksonville Center
Wed 05:21:39 PM 31.2783 -78.3814 North 467 537 35,000 -50 Level Jacksonville Center
Wed 05:22:39 PM 31.4050 -78.3606 North 462 532 34,900  Descending Jacksonville Center
Wed 05:23:39 PM 31.5358 -78.3397 North 462 532 35,000 50 Climbing Jacksonville Center
Wed 05:24:39 PM 31.6625 -78.3211 North 462 532 35,000  Level Jacksonville Center
Wed 05:25:39 PM 31.7911 -78.3003 North 467 537 35,000  Level Jacksonville Center
Wed 05:26:39 PM 31.9239 -78.2764 North 467 537 35,000  Level Jacksonville Center
Wed 05:27:39 PM 32.0544 -78.2528 North 467 537 35,000  Level Jacksonville Center
Wed 05:28:39 PM 32.1808 -78.2317 North 462 532 35,000 -50 Level Jacksonville Center
Wed 05:29:39 PM 32.3114 -78.2053 10° North 462 532 34,900  Descending Jacksonville Center
Wed 05:30:39 PM 32.4544 -78.1783 North 462 532 35,000 50 Climbing Jacksonville Center
Wed 05:31:39 PM 32.5689 -78.1697 North 462 532 35,000  Level Jacksonville Center
Wed 05:32:39 PM 32.7081 -78.1478 North 462 532 35,000  Level Jacksonville Center
Wed 05:33:39 PM 32.8261 -78.1267 North 462 532 35,000  Level Jacksonville Center
Wed 05:34:39 PM 32.9464 -78.1081 North 462 532 35,000  Level Jacksonville Center
Wed 05:35:39 PM 33.0750 -78.0861 North 462 532 35,000 -50 Level Jacksonville Center
Wed 05:36:39 PM 33.2036 -78.0644 North 467 537 34,900  Descending Jacksonville Center
Wed 05:37:39 PM 33.3281 -78.0453 North 460 529 35,000 44 Climbing Jacksonville Center
Wed 05:38:54 PM 33.4858 -78.0192 North 467 537 35,000  Level Washington Center
Wed 05:39:54 PM 33.6114 -77.9981 North 462 532 35,000  Level Washington Center
Wed 05:40:56 PM 33.7392 -77.9767 North 462 532 35,000  Level Washington Center
Wed 05:41:54 PM 33.8589 -77.9400 14° North 451 519 35,000  Level Washington Center
Wed 05:42:55 PM 33.9833 -77.8708 25° Northeast 456 525 35,000  Level Washington Center
Wed 05:43:54 PM 34.1011 -77.8139 22° Northeast 456 525 35,000  Level Washington Center
Wed 05:44:54 PM 34.2192 -77.7494 24° Northeast 451 519 35,000  Level Washington Center
Wed 05:45:56 PM 34.3494 -77.6900 21° North 455 524 35,000 -50 Level Washington Center
Wed 05:46:54 PM 34.4633 -77.6325 23° Northeast 450 518 34,900 -50 Descending Washington Center
Wed 05:47:55 PM 34.5769 -77.5722 24° Northeast 450 518 34,900 50 Level Washington Center
Wed 05:48:55 PM 34.6947 -77.5144 22° Northeast 450 518 35,000 50 Climbing Washington Center
Wed 05:49:55 PM 34.8106 -77.4514 24° Northeast 445 512 35,000  Level Washington Center
Wed 05:50:54 PM 34.9136 -77.3956 24° Northeast 440 506 35,000  Level Washington Center
Wed 05:51:55 PM 35.0292 -77.3344 23° Northeast 440 506 35,000  Level Washington Center
Wed 05:52:55 PM 35.1469 -77.2736 23° Northeast 440 506 35,000  Level Washington Center
Wed 05:53:54 PM 35.2625 -77.2125 23° Northeast 446 513 35,000  Level Washington Center
Wed 05:54:54 PM 35.3781 -77.1486 24° Northeast 446 513 35,000  Level Washington Center
Wed 05:55:55 PM 35.4958 -77.0897 22° Northeast 446 513 35,000  Level Washington Center
Wed 05:56:55 PM 35.6111 -77.0278 24° Northeast 446 513 35,000 -50 Level Washington Center
Wed 05:57:56 PM 35.7350 -76.9586 24° Northeast 438 504 34,900  Descending Washington Center
Wed 05:58:56 PM 35.8528 -76.8964 23° Northeast 445 512 35,000 50 Climbing Washington Center
Wed 05:59:57 PM 35.9681 -76.8342 24° Northeast 450 518 35,000  Level Washington Center
Wed 06:00:55 PM 36.0856 -76.7717 23° Northeast 450 518 35,000 -51 Level Washington Center
Wed 06:01:55 PM 36.2008 -76.7064 25° Northeast 450 518 34,900  Descending Washington Center
Wed 06:02:56 PM 36.3183 -76.6464 22° Northeast 450 518 35,000 50 Climbing Washington Center
Wed 06:03:54 PM 36.4336 -76.5858 23° Northeast 450 518 35,000  Level Washington Center
Wed 06:04:55 PM 36.5550 -76.5461 15° North 450 518 35,000  Level Washington Center
Wed 06:05:56 PM 36.6783 -76.5061 15° North 450 518 35,000  Level Washington Center
Wed 06:06:54 PM 36.7956 -76.4661 15° North 444 511 35,000  Level Washington Center
Wed 06:07:55 PM 36.9189 -76.4283 14° North 444 511 35,000  Level Washington Center
Wed 06:13:42 PM 36.8131 -76.4612 14° North 452 520 35,000  Level FlightAware ADS-B (EGAA / BFS)
Wed 06:19:25 PM 38.2348 -75.5866 29° Northeast 462 532 35,000 16 Level FlightAware ADS-B (EGAA / BFS)
Wed 06:20:02 PM 38.2973 -75.5436 29° Northeast 460 529 35,100  Climbing FlightAware ADS-B (EGAA / BFS)
Wed 06:20:50 PM 38.3859 -75.4921 19° North 454 522 35,000 -71 Descending FlightAware ADS-B (EGAA / BFS)
Wed 06:21:26 PM 38.4662 -75.4500 30° Northeast 466 536 35,000  Level FlightAware ADS-B (EGAA / BFS)
Wed 06:22:09 PM 38.5469 -75.3891 31° Northeast 466 536 35,000  Level FlightAware ADS-B (EGAA / BFS)
Wed 06:22:50 PM 38.6227 -75.3320 31° Northeast 464 534 35,000  Level FlightAware ADS-B (EGAA / BFS)
Wed 06:23:21 PM 38.6740 -75.2934 31° Northeast 462 532 35,000  Level FlightAware ADS-B (KPHL)
Wed 06:24:02 PM 38.7552 -75.2324 31° Northeast 462 532 35,000  Level FlightAware ADS-B (EGAA / BFS)
Wed 06:24:37 PM 38.8207 -75.1829 31° Northeast 461 531 35,000  Level FlightAware ADS-B (KPHL)
Wed 06:25:08 PM 38.8692 -75.1462 31° Northeast 461 531 35,000  Level FlightAware ADS-B (EGAA / BFS)
Wed 06:25:51 PM 38.9554 -75.0808 31° Northeast 458 527 35,000  Level FlightAware ADS-B (KPHL)
Wed 06:26:36 PM 39.0389 -75.0173 31° Northeast 457 526 35,000  Level FlightAware ADS-B (KPHL)
Wed 06:27:08 PM 39.0959 -74.9739 31° Northeast 456 525 35,000  Level FlightAware ADS-B (KPHL)
Wed 06:28:21 PM 39.2257 -74.8745 31° Northeast 455 524 35,000  Level FlightAware ADS-B (KPHL)
Wed 06:29:07 PM 39.3095 -74.8100 31° Northeast 453 521 35,000  Level FlightAware ADS-B (KPHL)
Wed 06:30:06 PM 39.4178 -74.7270 31° Northeast 453 521 35,000  Level FlightAware ADS-B (KPHL)
Wed 06:30:39 PM 39.4761 -74.6821 31° Northeast 452 520 35,000  Level FlightAware ADS-B (KPHL)
Wed 06:31:40 PM 39.5860 -74.5970 31° Northeast 453 521 35,000  Level FlightAware ADS-B (KPHL)
Wed 06:32:24 PM 39.6654 -74.5355 31° Northeast 453 521 35,000  Level FlightAware ADS-B (KPHL)
Wed 06:32:56 PM 39.7240 -74.4898 31° Northeast 454 522 35,000  Level FlightAware ADS-B (KPHL)
Wed 06:33:26 PM 39.7762 -74.4492 31° Northeast 454 522 35,000  Level FlightAware ADS-B (KPHL)
Wed 06:34:13 PM 39.8583 -74.3852 31° Northeast 455 524 35,000  Level FlightAware ADS-B (KPHL)
Wed 06:34:43 PM 39.9137 -74.3419 31° Northeast 455 524 35,000  Level FlightAware ADS-B (KPHL)
Wed 06:35:13 PM 39.9649 -74.3005 35° Northeast 457 526 35,000  Level FlightAware ADS-B (KSNC)
Wed 06:35:43 PM 40.0210 -74.2466 37° Northeast 460 529 35,000  Level FlightAware ADS-B (KSNC)
Wed 06:36:23 PM 40.0895 -74.1800 36° Northeast 462 532 35,000  Level FlightAware ADS-B (KSNC)
Wed 06:36:54 PM 40.1402 -74.1317 36° Northeast 461 531 35,000  Level FlightAware ADS-B (KSNC)
Wed 06:37:45 PM 40.2304 -74.0462 36° Northeast 462 532 35,000  Level FlightAware ADS-B (KSNC)
Wed 06:38:16 PM 40.2764 -74.0024 36° Northeast 462 532 35,000  Level FlightAware ADS-B (KSNC)
Wed 06:38:57 PM 40.3525 -73.9299 36° Northeast 460 529 35,000  Level FlightAware ADS-B (KPHL)
Wed 06:39:28 PM 40.4075 -73.8774 36° Northeast 459 528 35,000 -348 Level FlightAware ADS-B (KPHL)
Wed 06:40:06 PM 40.4729 -73.8148 36° Northeast 458 527 34,600 -1,054 Descending FlightAware ADS-B (KSNC)
Wed 06:40:42 PM 40.5339 -73.7562 36° Northeast 459 528 33,700 -1,775 Descending FlightAware ADS-B (KPHL)
Wed 06:41:17 PM 40.5942 -73.6982 36° Northeast 454 522 32,500 -2,080 Descending FlightAware ADS-B (KSNC)
Wed 06:41:57 PM 40.6603 -73.6345 36° Northeast 450 518 31,100 -2,127 Descending FlightAware ADS-B (KSNC)
Wed 06:42:36 PM 40.7256 -73.5713 36° Northeast 443 510 29,700 -2,182 Descending FlightAware ADS-B (KSNC)
Wed 06:43:14 PM 40.7694 -73.5288 36° Northeast 438 504 28,300 -2,226 Descending FlightAware ADS-B (KPHL)
Wed 06:43:38 PM 40.8263 -73.4731 40° Northeast 436 502 27,400 -1,444 Descending FlightAware ADS-B (KPHL)
Wed 06:44:08 PM 40.8694 -73.4216 46° Northeast 441 507 27,000 -1,108 Descending FlightAware ADS-B (KSNC)
Wed 06:44:43 PM 40.9202 -73.3482 48° Northeast 449 517 26,200 -1,297 Descending FlightAware ADS-B (KSNC)
Wed 06:45:22 PM 40.9740 -73.2697 48° Northeast 430 495 25,400 -1,200 Descending FlightAware ADS-B (KSNC)
Wed 06:45:53 PM 41.0134 -73.2117 48° Northeast 425 489 24,800 -1,082 Descending FlightAware ADS-B (KSNC)
Wed 06:46:23 PM 41.0536 -73.1520 49° Northeast 419 482 24,300 -984 Descending FlightAware ADS-B (KSNC)
Wed 06:46:54 PM 41.0934 -73.0927 49° Northeast 414 476 23,800 -1,065 Descending FlightAware ADS-B (KSNC)
Wed 06:47:25 PM 41.1320 -73.0350 49° Northeast 406 467 23,200 -774 Descending FlightAware ADS-B (KSNC)
Wed 06:47:56 PM 41.1703 -72.9779 49° Northeast 403 464 23,000 -174 Descending FlightAware ADS-B (KSNC)
Wed 06:48:34 PM 41.2147 -72.9062 55° Northeast 410 472 23,000  Level FlightAware ADS-B (KSNC)
Wed 06:49:07 PM 41.2458 -72.8395 63° Northeast 430 495 23,000  Level FlightAware ADS-B (KSNC)
Wed 06:49:39 PM 41.2775 -72.7553 64° Northeast 432 497 23,000  Level FlightAware ADS-B (KSNC)
Wed 06:50:19 PM 41.3125 -72.6616 64° Northeast 432 497 23,000  Level FlightAware ADS-B (KSNC)
Wed 06:50:49 PM 41.3372 -72.5955 64° Northeast 430 495 23,000  Level FlightAware ADS-B (KSNC)
Wed 06:51:29 PM 41.3725 -72.5005 64° Northeast 431 496 23,000  Level FlightAware ADS-B (KSNC)
Wed 06:51:59 PM 41.4013 -72.4222 64° Northeast 432 497 23,000 -700 Level FlightAware ADS-B (KSNC)
Wed 06:52:29 PM 41.4264 -72.3543 64° Northeast 428 493 22,300 -1,645 Descending FlightAware ADS-B (KSNC)
Wed 06:53:01 PM 41.4544 -72.2780 64° Northeast 428 493 21,300 -1,970 Descending FlightAware ADS-B (KSNC)
Wed 06:53:36 PM 41.4850 -72.1945 64° Northeast 430 495 20,100 -2,057 Descending FlightAware ADS-B (KSNC)
Wed 06:54:11 PM 41.5155 -72.1111 64° Northeast 414 476 18,900 -1,913 Descending FlightAware ADS-B (KSNC)
Wed 06:54:45 PM 41.5427 -72.0369 64° Northeast 397 457 17,900 -1,938 Descending FlightAware ADS-B (KSNC)
Wed 06:55:16 PM 41.5665 -71.9660 68° East 391 450 16,800 -1,905 Descending FlightAware ADS-B (KSNC)
Wed 06:55:48 PM 41.5859 -71.9011 68° East 388 447 15,900 -1,907 Descending FlightAware ADS-B (KSNC)
Wed 06:57:03 PM 41.6364 -71.7300 70° East 376 433 13,400 -1,930 Descending FlightAware ADS-B (KASH)
Wed 06:58:11 PM 41.6787 -71.5863 69° East 358 412 11,300 -1,415 Descending FlightAware ADS-B (KASH)
Wed 06:58:49 PM 41.7009 -71.5104 70° East 323 372 10,900 -435 Descending FlightAware ADS-B (KASH)
Wed 06:59:20 PM 41.7168 -71.4559 70° East 301 346 10,800 -86 Descending FlightAware ADS-B (KASH)
Wed 06:59:59 PM 41.7414 -71.3929 52° Northeast 288 331 10,800 -400 Level FlightAware ADS-B (KASH)
Wed 07:00:35 PM 41.7732 -71.3428 51° Northeast 286 329 10,300 -844 Descending FlightAware ADS-B (KASH)
Wed 07:01:03 PM 41.7980 -71.3034 51° Northeast 287 330 9,900 -933 Descending FlightAware ADS-B (KASH)
Wed 07:01:20 PM 41.8131 -71.2810 45° Northeast 282 325 9,600 -1,000 Descending FlightAware ADS-B (KASH)
Wed 07:01:33 PM 41.8264 -71.2679 33° Northeast 283 326 9,400 -1,043 Descending FlightAware ADS-B (KASH)
Wed 07:02:06 PM 41.8648 -71.2443 22° Northeast 275 316 8,800 -1,071 Descending FlightAware ADS-B (KASH)
Wed 07:02:29 PM 41.8916 -71.2316 20° North 255 293 8,400 -923 Descending FlightAware ADS-B (KASH)
Wed 07:02:45 PM 41.9089 -71.2236 19° North 250 288 8,200 -833 Descending FlightAware ADS-B (KOWD)
Wed 07:03:05 PM 41.9301 -71.2133 20° North 235 270 7,900 -1,029 Descending FlightAware ADS-B (KOWD)
Wed 07:03:20 PM 41.9461 -71.2057 19° North 226 260 7,600 -1,000 Descending FlightAware ADS-B (KASH)
Wed 07:03:35 PM 41.9594 -71.1996 19° North 216 249 7,400 -529 Descending FlightAware ADS-B (KOWD)
Wed 07:03:54 PM 41.9773 -71.1915 18° North 193 222 7,300 -732 Descending FlightAware ADS-B (KOWD)
Wed 07:04:16 PM 41.9933 -71.1844 19° North 176 203 6,900 -1,286 Descending FlightAware ADS-B (KOWD)
Wed 07:04:36 PM 42.0098 -71.1767 20° North 172 198 6,400 -1,737 Descending FlightAware ADS-B (KOWD)
Wed 07:04:54 PM 42.0231 -71.1701 21° North 171 197 5,800 -1,784 Descending FlightAware ADS-B (KOWD)
Wed 07:05:13 PM 42.0358 -71.1636 21° North 168 193 5,300 -1,429 Descending FlightAware ADS-B (KOWD)
Wed 07:05:36 PM 42.0528 -71.1552 20° North 164 189 4,800 -1,535 Descending FlightAware ADS-B (KOWD)
Wed 07:05:56 PM 42.0680 -71.1479 19° North 163 188 4,200 -1,350 Descending FlightAware ADS-B (KOWD)
Wed 07:06:16 PM 42.0820 -71.1413 20° North 161 185 3,900 -1,050 Descending FlightAware ADS-B (KOWD)
Wed 07:06:36 PM 42.0965 -71.1360 North 163 188 3,500 -1,286 Descending FlightAware ADS-B (KOWD)
Wed 07:06:44 PM 42.1026 -71.1380 337° Northwest 172 198 3,300 -1,200 Descending FlightAware ADS-B (KOWD)
Wed 07:06:56 PM 42.1103 -71.1435 329° Northwest 176 203 3,100 -1,143 Descending FlightAware ADS-B (KOWD)
Wed 07:07:05 PM 42.1172 -71.1476 348° North 169 194 2,900 -900 Descending FlightAware ADS-B (KOWD)
Wed 07:07:16 PM 42.1235 -71.1477 17° North 156 180 2,800 -286 Descending FlightAware ADS-B (KOWD)
Wed 07:07:26 PM 42.1313 -71.1415 47° Northeast 155 178 2,800  Level FlightAware ADS-B (KOWD)
Wed 07:07:45 PM 42.1395 -71.1270 55° Northeast 155 178 2,800  Level FlightAware ADS-B (KOWD)
Wed 07:08:06 PM 42.1445 -71.1175 40° Northeast 157 181 2,800  Level FlightAware ADS-B (KOWD)
Wed 07:08:16 PM 42.1554 -71.1067 25° Northeast 158 182 2,800  Level FlightAware ADS-B (KOWD)
Wed 07:08:35 PM 42.1683 -71.0999 20° North 159 183 2,800  Level FlightAware ADS-B (KOWD)
Wed 07:08:56 PM 42.1833 -71.0927 20° North 159 183 2,800  Level FlightAware ADS-B (KOWD)
Wed 07:09:16 PM 42.1971 -71.0861 19° North 159 183 2,800 -645 Level FlightAware ADS-B (KOWD)
Wed 07:10:29 PM 42.2500 -71.0667 19° North 153 176 1,800 -632 Descending KA90
Wed 07:11:29 PM 42.2833 -71.0500 20° North 157 181 1,400 -500 Descending KA90
Wed 07:12:29 PM 42.3167 -71.0167 36° Northeast 127 146 800 -448 Descending KA90
Wed 07:13:43 PM 42.3572 -71.0075 North 138 159 400 -324 Descending Boston Center

Login

Don't have an account? Register now (free) for customized features, flight alerts, and more!